sensor_id;sensor_type;location;lat;lon;timestamp;P1;durP1;ratioP1;P2;durP2;ratioP2
25549;SDS011;13444;50.562;7.262;2022-08-02T00:00:55;3.80;;;2.80;;
25549;SDS011;13444;50.562;7.262;2022-08-02T00:03:21;5.47;;;3.25;;
25549;SDS011;13444;50.562;7.262;2022-08-02T00:05:47;2.85;;;2.60;;
25549;SDS011;13444;50.562;7.262;2022-08-02T00:08:12;3.22;;;2.90;;
25549;SDS011;13444;50.562;7.262;2022-08-02T00:10:38;3.78;;;3.25;;
25549;SDS011;13444;50.562;7.262;2022-08-02T00:13:03;3.65;;;3.00;;
25549;SDS011;13444;50.562;7.262;2022-08-02T00:15:29;3.28;;;2.97;;
25549;SDS011;13444;50.562;7.262;2022-08-02T00:17:54;3.03;;;2.80;;
25549;SDS011;13444;50.562;7.262;2022-08-02T00:20:20;2.90;;;2.58;;
25549;SDS011;13444;50.562;7.262;2022-08-02T00:22:46;2.83;;;2.53;;
25549;SDS011;13444;50.562;7.262;2022-08-02T00:25:11;4.65;;;2.67;;
25549;SDS011;13444;50.562;7.262;2022-08-02T00:27:37;3.15;;;2.85;;
25549;SDS011;13444;50.562;7.262;2022-08-02T00:30:02;2.80;;;2.55;;
25549;SDS011;13444;50.562;7.262;2022-08-02T00:32:28;2.92;;;2.65;;
25549;SDS011;13444;50.562;7.262;2022-08-02T00:34:53;3.00;;;2.55;;
25549;SDS011;13444;50.562;7.262;2022-08-02T00:37:19;5.05;;;2.88;;
25549;SDS011;13444;50.562;7.262;2022-08-02T00:39:44;3.55;;;2.85;;
25549;SDS011;13444;50.562;7.262;2022-08-02T00:42:12;2.92;;;2.50;;
25549;SDS011;13444;50.562;7.262;2022-08-02T00:44:39;5.55;;;2.67;;
25549;SDS011;13444;50.562;7.262;2022-08-02T00:47:04;3.58;;;2.38;;
25549;SDS011;13444;50.562;7.262;2022-08-02T00:49:30;3.80;;;2.72;;
25549;SDS011;13444;50.562;7.262;2022-08-02T00:51:56;4.32;;;2.45;;
25549;SDS011;13444;50.562;7.262;2022-08-02T00:54:21;3.22;;;2.50;;
25549;SDS011;13444;50.562;7.262;2022-08-02T00:56:47;2.75;;;2.03;;
25549;SDS011;13444;50.562;7.262;2022-08-02T00:59:12;2.95;;;2.65;;
25549;SDS011;13444;50.562;7.262;2022-08-02T01:01:38;2.50;;;2.30;;
25549;SDS011;13444;50.562;7.262;2022-08-02T01:04:04;3.05;;;2.30;;
25549;SDS011;13444;50.562;7.262;2022-08-02T01:06:33;3.05;;;2.20;;
25549;SDS011;13444;50.562;7.262;2022-08-02T01:09:00;2.53;;;2.33;;
25549;SDS011;13444;50.562;7.262;2022-08-02T01:11:26;3.60;;;2.30;;
25549;SDS011;13444;50.562;7.262;2022-08-02T01:13:53;2.75;;;2.30;;
25549;SDS011;13444;50.562;7.262;2022-08-02T01:16:22;3.45;;;2.72;;
25549;SDS011;13444;50.562;7.262;2022-08-02T01:18:53;4.18;;;2.65;;
25549;SDS011;13444;50.562;7.262;2022-08-02T01:21:47;2.72;;;2.53;;
25549;SDS011;13444;50.562;7.262;2022-08-02T01:30:13;3.42;;;2.72;;
25549;SDS011;13444;50.562;7.262;2022-08-02T01:32:45;2.70;;;2.50;;
25549;SDS011;13444;50.562;7.262;2022-08-02T01:35:16;5.10;;;2.72;;
25549;SDS011;13444;50.562;7.262;2022-08-02T01:37:48;4.00;;;2.50;;
25549;SDS011;13444;50.562;7.262;2022-08-02T01:40:27;3.78;;;2.60;;
25549;SDS011;13444;50.562;7.262;2022-08-02T01:42:55;2.60;;;2.35;;
25549;SDS011;13444;50.562;7.262;2022-08-02T01:45:24;2.67;;;2.47;;
25549;SDS011;13444;50.562;7.262;2022-08-02T01:47:52;2.50;;;2.20;;
25549;SDS011;13444;50.562;7.262;2022-08-02T01:50:20;2.80;;;2.50;;
25549;SDS011;13444;50.562;7.262;2022-08-02T01:52:50;2.88;;;2.58;;
25549;SDS011;13444;50.562;7.262;2022-08-02T01:55:22;3.30;;;2.92;;
25549;SDS011;13444;50.562;7.262;2022-08-02T01:57:52;3.85;;;2.50;;
25549;SDS011;13444;50.562;7.262;2022-08-02T02:00:22;3.45;;;2.63;;
25549;SDS011;13444;50.562;7.262;2022-08-02T02:02:51;3.95;;;2.95;;
25549;SDS011;13444;50.562;7.262;2022-08-02T02:05:19;3.15;;;2.88;;
25549;SDS011;13444;50.562;7.262;2022-08-02T02:07:51;3.40;;;2.88;;
25549;SDS011;13444;50.562;7.262;2022-08-02T02:10:23;4.10;;;3.17;;
25549;SDS011;13444;50.562;7.262;2022-08-02T02:12:51;3.13;;;2.70;;
25549;SDS011;13444;50.562;7.262;2022-08-02T02:15:18;4.75;;;3.00;;
25549;SDS011;13444;50.562;7.262;2022-08-02T02:17:46;3.42;;;2.85;;
25549;SDS011;13444;50.562;7.262;2022-08-02T02:20:16;3.63;;;2.75;;
25549;SDS011;13444;50.562;7.262;2022-08-02T02:22:42;6.10;;;2.90;;
25549;SDS011;13444;50.562;7.262;2022-08-02T02:25:09;8.30;;;3.08;;
25549;SDS011;13444;50.562;7.262;2022-08-02T02:27:36;3.95;;;2.78;;
25549;SDS011;13444;50.562;7.262;2022-08-02T02:30:03;4.68;;;3.10;;
25549;SDS011;13444;50.562;7.262;2022-08-02T02:32:30;3.15;;;2.40;;
25549;SDS011;13444;50.562;7.262;2022-08-02T02:34:57;4.13;;;3.20;;
25549;SDS011;13444;50.562;7.262;2022-08-02T02:37:26;3.10;;;2.80;;
25549;SDS011;13444;50.562;7.262;2022-08-02T02:39:53;4.30;;;2.63;;
25549;SDS011;13444;50.562;7.262;2022-08-02T02:42:27;6.13;;;2.53;;
25549;SDS011;13444;50.562;7.262;2022-08-02T02:44:56;3.28;;;2.45;;
25549;SDS011;13444;50.562;7.262;2022-08-02T02:47:23;2.80;;;2.50;;
25549;SDS011;13444;50.562;7.262;2022-08-02T02:49:51;2.42;;;2.22;;
25549;SDS011;13444;50.562;7.262;2022-08-02T02:52:17;3.13;;;2.50;;
25549;SDS011;13444;50.562;7.262;2022-08-02T02:54:45;3.40;;;2.72;;
25549;SDS011;13444;50.562;7.262;2022-08-02T02:57:13;2.47;;;2.28;;
25549;SDS011;13444;50.562;7.262;2022-08-02T02:59:39;3.28;;;2.60;;
25549;SDS011;13444;50.562;7.262;2022-08-02T03:02:06;2.50;;;2.25;;
25549;SDS011;13444;50.562;7.262;2022-08-02T03:04:32;4.97;;;2.28;;
25549;SDS011;13444;50.562;7.262;2022-08-02T03:06:59;2.60;;;2.40;;
25549;SDS011;13444;50.562;7.262;2022-08-02T03:09:25;3.63;;;2.47;;
25549;SDS011;13444;50.562;7.262;2022-08-02T03:11:52;3.10;;;2.58;;
25549;SDS011;13444;50.562;7.262;2022-08-02T03:14:18;2.08;;;1.88;;
25549;SDS011;13444;50.562;7.262;2022-08-02T03:16:45;3.08;;;2.50;;
25549;SDS011;13444;50.562;7.262;2022-08-02T03:19:18;2.60;;;2.00;;
25549;SDS011;13444;50.562;7.262;2022-08-02T03:21:46;2.35;;;2.15;;
25549;SDS011;13444;50.562;7.262;2022-08-02T03:24:13;3.58;;;2.00;;
25549;SDS011;13444;50.562;7.262;2022-08-02T03:26:39;3.60;;;2.20;;
25549;SDS011;13444;50.562;7.262;2022-08-02T03:29:05;3.05;;;2.45;;
25549;SDS011;13444;50.562;7.262;2022-08-02T03:31:30;3.20;;;2.78;;
25549;SDS011;13444;50.562;7.262;2022-08-02T03:33:56;2.45;;;2.13;;
25549;SDS011;13444;50.562;7.262;2022-08-02T03:36:24;2.60;;;2.40;;
25549;SDS011;13444;50.562;7.262;2022-08-02T03:38:54;3.22;;;2.13;;
25549;SDS011;13444;50.562;7.262;2022-08-02T03:41:20;3.67;;;2.47;;
25549;SDS011;13444;50.562;7.262;2022-08-02T03:43:47;2.05;;;1.85;;
25549;SDS011;13444;50.562;7.262;2022-08-02T03:46:14;3.38;;;2.40;;
25549;SDS011;13444;50.562;7.262;2022-08-02T03:48:42;4.53;;;2.90;;
25549;SDS011;13444;50.562;7.262;2022-08-02T03:51:08;2.65;;;2.10;;
25549;SDS011;13444;50.562;7.262;2022-08-02T03:53:35;3.05;;;2.58;;
25549;SDS011;13444;50.562;7.262;2022-08-02T03:56:01;3.60;;;2.80;;
25549;SDS011;13444;50.562;7.262;2022-08-02T03:58:28;3.65;;;2.65;;
25549;SDS011;13444;50.562;7.262;2022-08-02T04:00:55;5.93;;;3.08;;
25549;SDS011;13444;50.562;7.262;2022-08-02T04:03:21;4.18;;;2.70;;
25549;SDS011;13444;50.562;7.262;2022-08-02T04:05:47;4.45;;;2.25;;
25549;SDS011;13444;50.562;7.262;2022-08-02T04:08:13;4.57;;;2.80;;
25549;SDS011;13444;50.562;7.262;2022-08-02T04:10:39;3.13;;;2.80;;
25549;SDS011;13444;50.562;7.262;2022-08-02T04:13:24;5.38;;;3.00;;
25549;SDS011;13444;50.562;7.262;2022-08-02T04:15:52;8.30;;;2.63;;
25549;SDS011;13444;50.562;7.262;2022-08-02T04:18:24;6.65;;;2.65;;
25549;SDS011;13444;50.562;7.262;2022-08-02T04:20:54;4.53;;;3.08;;
25549;SDS011;13444;50.562;7.262;2022-08-02T04:23:20;4.28;;;2.60;;
25549;SDS011;13444;50.562;7.262;2022-08-02T04:25:48;6.75;;;3.17;;
25549;SDS011;13444;50.562;7.262;2022-08-02T04:28:14;4.88;;;2.92;;
25549;SDS011;13444;50.562;7.262;2022-08-02T04:30:40;4.45;;;3.47;;
25549;SDS011;13444;50.562;7.262;2022-08-02T04:33:07;13.45;;;3.88;;
25549;SDS011;13444;50.562;7.262;2022-08-02T04:35:33;12.95;;;3.60;;
25549;SDS011;13444;50.562;7.262;2022-08-02T04:37:59;14.88;;;3.92;;
25549;SDS011;13444;50.562;7.262;2022-08-02T04:40:25;7.55;;;3.60;;
25549;SDS011;13444;50.562;7.262;2022-08-02T04:42:51;12.02;;;4.00;;
25549;SDS011;13444;50.562;7.262;2022-08-02T04:45:16;6.70;;;3.25;;
25549;SDS011;13444;50.562;7.262;2022-08-02T04:47:43;10.70;;;4.45;;
25549;SDS011;13444;50.562;7.262;2022-08-02T04:50:09;5.03;;;3.30;;
25549;SDS011;13444;50.562;7.262;2022-08-02T04:52:34;6.97;;;3.83;;
25549;SDS011;13444;50.562;7.262;2022-08-02T04:55:00;7.15;;;3.80;;
25549;SDS011;13444;50.562;7.262;2022-08-02T04:57:25;7.22;;;3.78;;
25549;SDS011;13444;50.562;7.262;2022-08-02T05:00:09;7.85;;;3.75;;
25549;SDS011;13444;50.562;7.262;2022-08-02T05:02:35;6.13;;;3.85;;
25549;SDS011;13444;50.562;7.262;2022-08-02T05:05:01;6.25;;;3.70;;
25549;SDS011;13444;50.562;7.262;2022-08-02T05:07:27;4.38;;;3.13;;
25549;SDS011;13444;50.562;7.262;2022-08-02T05:09:53;4.40;;;3.50;;
25549;SDS011;13444;50.562;7.262;2022-08-02T05:12:18;3.97;;;3.15;;
25549;SDS011;13444;50.562;7.262;2022-08-02T05:14:46;3.10;;;2.85;;
25549;SDS011;13444;50.562;7.262;2022-08-02T05:17:12;6.57;;;3.42;;
25549;SDS011;13444;50.562;7.262;2022-08-02T05:19:37;12.50;;;3.97;;
25549;SDS011;13444;50.562;7.262;2022-08-02T05:22:03;9.20;;;4.22;;
25549;SDS011;13444;50.562;7.262;2022-08-02T05:24:28;9.13;;;3.88;;
25549;SDS011;13444;50.562;7.262;2022-08-02T05:26:54;8.40;;;3.85;;
25549;SDS011;13444;50.562;7.262;2022-08-02T05:29:19;7.93;;;4.30;;
25549;SDS011;13444;50.562;7.262;2022-08-02T05:31:46;6.50;;;3.67;;
25549;SDS011;13444;50.562;7.262;2022-08-02T05:34:12;5.35;;;3.60;;
25549;SDS011;13444;50.562;7.262;2022-08-02T05:36:37;5.95;;;4.60;;
25549;SDS011;13444;50.562;7.262;2022-08-02T05:39:03;3.80;;;3.45;;
25549;SDS011;13444;50.562;7.262;2022-08-02T05:41:28;7.97;;;4.07;;
25549;SDS011;13444;50.562;7.262;2022-08-02T05:43:54;12.52;;;4.72;;
25549;SDS011;13444;50.562;7.262;2022-08-02T05:46:19;7.63;;;4.45;;
25549;SDS011;13444;50.562;7.262;2022-08-02T05:48:45;6.55;;;4.10;;
25549;SDS011;13444;50.562;7.262;2022-08-02T05:51:11;4.68;;;3.90;;
25549;SDS011;13444;50.562;7.262;2022-08-02T05:53:59;5.07;;;3.60;;
25549;SDS011;13444;50.562;7.262;2022-08-02T05:59:11;4.38;;;3.53;;
25549;SDS011;13444;50.562;7.262;2022-08-02T06:01:51;5.82;;;3.67;;
25549;SDS011;13444;50.562;7.262;2022-08-02T06:04:24;8.60;;;4.43;;
25549;SDS011;13444;50.562;7.262;2022-08-02T06:06:51;19.27;;;6.00;;
25549;SDS011;13444;50.562;7.262;2022-08-02T06:09:20;16.45;;;6.68;;
25549;SDS011;13444;50.562;7.262;2022-08-02T06:11:49;35.53;;;10.68;;
25549;SDS011;13444;50.562;7.262;2022-08-02T06:14:16;29.17;;;8.10;;
25549;SDS011;13444;50.562;7.262;2022-08-02T06:16:43;9.10;;;4.80;;
25549;SDS011;13444;50.562;7.262;2022-08-02T06:19:12;6.93;;;5.25;;
25549;SDS011;13444;50.562;7.262;2022-08-02T06:21:39;7.00;;;5.03;;
25549;SDS011;13444;50.562;7.262;2022-08-02T06:24:07;6.07;;;4.95;;
25549;SDS011;13444;50.562;7.262;2022-08-02T06:26:34;6.82;;;5.35;;
25549;SDS011;13444;50.562;7.262;2022-08-02T06:29:00;6.32;;;4.47;;
25549;SDS011;13444;50.562;7.262;2022-08-02T06:31:27;6.13;;;3.90;;
25549;SDS011;13444;50.562;7.262;2022-08-02T06:33:53;5.63;;;4.68;;
25549;SDS011;13444;50.562;7.262;2022-08-02T06:39:19;5.93;;;4.30;;
25549;SDS011;13444;50.562;7.262;2022-08-02T06:41:49;10.02;;;4.88;;
25549;SDS011;13444;50.562;7.262;2022-08-02T06:44:18;6.70;;;4.30;;
25549;SDS011;13444;50.562;7.262;2022-08-02T06:46:44;7.22;;;3.67;;
25549;SDS011;13444;50.562;7.262;2022-08-02T06:49:09;7.88;;;4.47;;
25549;SDS011;13444;50.562;7.262;2022-08-02T06:51:35;5.10;;;4.40;;
25549;SDS011;13444;50.562;7.262;2022-08-02T06:54:00;7.25;;;4.65;;
25549;SDS011;13444;50.562;7.262;2022-08-02T06:56:26;11.93;;;5.30;;
25549;SDS011;13444;50.562;7.262;2022-08-02T06:58:51;13.27;;;4.72;;
25549;SDS011;13444;50.562;7.262;2022-08-02T07:01:17;6.75;;;4.53;;
25549;SDS011;13444;50.562;7.262;2022-08-02T07:03:43;11.88;;;4.40;;
25549;SDS011;13444;50.562;7.262;2022-08-02T07:06:09;8.23;;;4.03;;
25549;SDS011;13444;50.562;7.262;2022-08-02T07:08:35;6.63;;;3.35;;
25549;SDS011;13444;50.562;7.262;2022-08-02T07:11:03;5.20;;;3.72;;
25549;SDS011;13444;50.562;7.262;2022-08-02T07:13:29;5.90;;;3.45;;
25549;SDS011;13444;50.562;7.262;2022-08-02T07:15:55;9.68;;;3.55;;
25549;SDS011;13444;50.562;7.262;2022-08-02T07:18:21;9.18;;;4.15;;
25549;SDS011;13444;50.562;7.262;2022-08-02T07:20:48;6.13;;;3.30;;
25549;SDS011;13444;50.562;7.262;2022-08-02T07:23:13;7.55;;;4.00;;
25549;SDS011;13444;50.562;7.262;2022-08-02T07:25:39;8.52;;;4.05;;
25549;SDS011;13444;50.562;7.262;2022-08-02T07:28:05;10.57;;;3.95;;
25549;SDS011;13444;50.562;7.262;2022-08-02T07:30:33;7.70;;;4.07;;
25549;SDS011;13444;50.562;7.262;2022-08-02T07:33:00;7.32;;;3.80;;
25549;SDS011;13444;50.562;7.262;2022-08-02T07:35:25;10.65;;;4.05;;
25549;SDS011;13444;50.562;7.262;2022-08-02T07:37:51;8.52;;;3.53;;
25549;SDS011;13444;50.562;7.262;2022-08-02T07:40:18;8.05;;;3.65;;
25549;SDS011;13444;50.562;7.262;2022-08-02T07:42:44;12.75;;;3.35;;
25549;SDS011;13444;50.562;7.262;2022-08-02T07:45:10;8.98;;;3.22;;
25549;SDS011;13444;50.562;7.262;2022-08-02T07:47:37;7.88;;;3.10;;
25549;SDS011;13444;50.562;7.262;2022-08-02T07:50:03;14.15;;;3.65;;
25549;SDS011;13444;50.562;7.262;2022-08-02T07:52:29;9.05;;;3.70;;
25549;SDS011;13444;50.562;7.262;2022-08-02T07:54:55;8.95;;;3.33;;
25549;SDS011;13444;50.562;7.262;2022-08-02T07:57:20;15.23;;;3.63;;
25549;SDS011;13444;50.562;7.262;2022-08-02T07:59:46;10.60;;;3.08;;
25549;SDS011;13444;50.562;7.262;2022-08-02T08:02:12;8.05;;;3.47;;
25549;SDS011;13444;50.562;7.262;2022-08-02T08:04:38;10.00;;;2.80;;
25549;SDS011;13444;50.562;7.262;2022-08-02T08:07:04;9.13;;;2.47;;
25549;SDS011;13444;50.562;7.262;2022-08-02T08:09:33;8.68;;;2.83;;
25549;SDS011;13444;50.562;7.262;2022-08-02T08:12:03;11.07;;;3.40;;
25549;SDS011;13444;50.562;7.262;2022-08-02T08:14:30;8.50;;;2.72;;
25549;SDS011;13444;50.562;7.262;2022-08-02T08:16:55;7.75;;;3.25;;
25549;SDS011;13444;50.562;7.262;2022-08-02T08:19:21;11.20;;;2.85;;
25549;SDS011;13444;50.562;7.262;2022-08-02T08:21:46;9.45;;;2.90;;
25549;SDS011;13444;50.562;7.262;2022-08-02T08:24:12;6.70;;;2.47;;
25549;SDS011;13444;50.562;7.262;2022-08-02T08:26:37;7.40;;;2.63;;
25549;SDS011;13444;50.562;7.262;2022-08-02T08:29:04;10.90;;;2.95;;
25549;SDS011;13444;50.562;7.262;2022-08-02T08:31:31;8.75;;;2.60;;
25549;SDS011;13444;50.562;7.262;2022-08-02T08:33:57;9.38;;;2.58;;
25549;SDS011;13444;50.562;7.262;2022-08-02T08:36:23;6.82;;;2.35;;
25549;SDS011;13444;50.562;7.262;2022-08-02T08:38:48;7.65;;;2.10;;
25549;SDS011;13444;50.562;7.262;2022-08-02T08:41:15;6.30;;;2.08;;
25549;SDS011;13444;50.562;7.262;2022-08-02T08:43:41;8.65;;;2.50;;
25549;SDS011;13444;50.562;7.262;2022-08-02T08:46:08;7.97;;;2.47;;
25549;SDS011;13444;50.562;7.262;2022-08-02T08:48:36;8.82;;;1.92;;
25549;SDS011;13444;50.562;7.262;2022-08-02T08:51:13;7.57;;;2.03;;
25549;SDS011;13444;50.562;7.262;2022-08-02T08:53:43;4.97;;;1.80;;
25549;SDS011;13444;50.562;7.262;2022-08-02T08:56:10;12.65;;;2.40;;
25549;SDS011;13444;50.562;7.262;2022-08-02T08:58:37;4.90;;;1.70;;
25549;SDS011;13444;50.562;7.262;2022-08-02T09:01:03;4.97;;;1.65;;
25549;SDS011;13444;50.562;7.262;2022-08-02T09:03:29;4.22;;;1.60;;
25549;SDS011;13444;50.562;7.262;2022-08-02T09:05:56;8.80;;;2.13;;
25549;SDS011;13444;50.562;7.262;2022-08-02T09:08:22;10.57;;;1.95;;
25549;SDS011;13444;50.562;7.262;2022-08-02T09:10:48;7.35;;;1.70;;
25549;SDS011;13444;50.562;7.262;2022-08-02T09:13:24;5.63;;;2.00;;
25549;SDS011;13444;50.562;7.262;2022-08-02T09:15:56;11.35;;;1.60;;
25549;SDS011;13444;50.562;7.262;2022-08-02T09:18:33;8.93;;;1.90;;
25549;SDS011;13444;50.562;7.262;2022-08-02T09:21:04;1.95;;;1.45;;
25549;SDS011;13444;50.562;7.262;2022-08-02T09:23:36;4.95;;;1.77;;
25549;SDS011;13444;50.562;7.262;2022-08-02T09:26:08;5.45;;;1.85;;
25549;SDS011;13444;50.562;7.262;2022-08-02T09:28:36;7.70;;;1.65;;
25549;SDS011;13444;50.562;7.262;2022-08-02T09:33:35;3.47;;;1.40;;
25549;SDS011;13444;50.562;7.262;2022-08-02T09:36:08;5.45;;;1.63;;
25549;SDS011;13444;50.562;7.262;2022-08-02T09:38:37;3.53;;;1.70;;
25549;SDS011;13444;50.562;7.262;2022-08-02T09:41:18;6.10;;;1.40;;
25549;SDS011;13444;50.562;7.262;2022-08-02T09:43:45;3.25;;;1.60;;
25549;SDS011;13444;50.562;7.262;2022-08-02T09:46:21;3.53;;;1.48;;
25549;SDS011;13444;50.562;7.262;2022-08-02T09:48:55;3.53;;;1.38;;
25549;SDS011;13444;50.562;7.262;2022-08-02T09:51:28;5.85;;;1.52;;
25549;SDS011;13444;50.562;7.262;2022-08-02T09:53:59;4.38;;;1.50;;
25549;SDS011;13444;50.562;7.262;2022-08-02T09:56:27;4.80;;;1.58;;
25549;SDS011;13444;50.562;7.262;2022-08-02T09:59:06;3.88;;;1.60;;
25549;SDS011;13444;50.562;7.262;2022-08-02T10:01:33;7.53;;;2.00;;
25549;SDS011;13444;50.562;7.262;2022-08-02T10:04:03;7.38;;;1.92;;
25549;SDS011;13444;50.562;7.262;2022-08-02T10:06:30;9.93;;;1.75;;
25549;SDS011;13444;50.562;7.262;2022-08-02T10:08:56;5.50;;;2.03;;
25549;SDS011;13444;50.562;7.262;2022-08-02T10:11:23;2.40;;;1.35;;
25549;SDS011;13444;50.562;7.262;2022-08-02T10:13:50;6.97;;;2.13;;
25549;SDS011;13444;50.562;7.262;2022-08-02T10:16:17;4.55;;;1.70;;
25549;SDS011;13444;50.562;7.262;2022-08-02T10:18:47;6.90;;;1.80;;
25549;SDS011;13444;50.562;7.262;2022-08-02T10:21:26;3.85;;;1.50;;
25549;SDS011;13444;50.562;7.262;2022-08-02T10:24:14;7.25;;;1.63;;
25549;SDS011;13444;50.562;7.262;2022-08-02T10:26:45;6.82;;;1.60;;
25549;SDS011;13444;50.562;7.262;2022-08-02T10:29:14;3.17;;;1.50;;
25549;SDS011;13444;50.562;7.262;2022-08-02T10:34:16;4.97;;;1.58;;
25549;SDS011;13444;50.562;7.262;2022-08-02T10:36:45;3.17;;;1.45;;
25549;SDS011;13444;50.562;7.262;2022-08-02T10:39:13;7.22;;;2.30;;
25549;SDS011;13444;50.562;7.262;2022-08-02T10:41:42;4.32;;;1.40;;
25549;SDS011;13444;50.562;7.262;2022-08-02T10:44:20;4.20;;;1.80;;
25549;SDS011;13444;50.562;7.262;2022-08-02T10:46:51;4.88;;;1.70;;
25549;SDS011;13444;50.562;7.262;2022-08-02T10:54:20;4.15;;;1.45;;
25549;SDS011;13444;50.562;7.262;2022-08-02T10:56:48;3.75;;;1.15;;
25549;SDS011;13444;50.562;7.262;2022-08-02T11:01:57;4.10;;;1.50;;
25549;SDS011;13444;50.562;7.262;2022-08-02T11:07:17;2.30;;;1.42;;
25549;SDS011;13444;50.562;7.262;2022-08-02T11:09:45;2.08;;;1.30;;
25549;SDS011;13444;50.562;7.262;2022-08-02T11:12:12;3.10;;;1.30;;
25549;SDS011;13444;50.562;7.262;2022-08-02T11:14:43;3.35;;;1.20;;
25549;SDS011;13444;50.562;7.262;2022-08-02T11:17:12;1.73;;;1.20;;
25549;SDS011;13444;50.562;7.262;2022-08-02T11:20:12;7.80;;;1.38;;
25549;SDS011;13444;50.562;7.262;2022-08-02T11:22:40;2.95;;;1.40;;
25549;SDS011;13444;50.562;7.262;2022-08-02T11:27:57;2.08;;;1.20;;
25549;SDS011;13444;50.562;7.262;2022-08-02T11:30:31;3.90;;;1.38;;
25549;SDS011;13444;50.562;7.262;2022-08-02T11:32:57;2.97;;;1.60;;
25549;SDS011;13444;50.562;7.262;2022-08-02T11:35:30;3.70;;;1.30;;
25549;SDS011;13444;50.562;7.262;2022-08-02T11:38:11;3.28;;;1.42;;
25549;SDS011;13444;50.562;7.262;2022-08-02T11:40:47;7.82;;;1.30;;
25549;SDS011;13444;50.562;7.262;2022-08-02T11:43:20;5.63;;;1.20;;
25549;SDS011;13444;50.562;7.262;2022-08-02T11:45:48;2.15;;;1.30;;
25549;SDS011;13444;50.562;7.262;2022-08-02T11:48:21;2.17;;;1.30;;
25549;SDS011;13444;50.562;7.262;2022-08-02T11:51:08;4.28;;;1.40;;
25549;SDS011;13444;50.562;7.262;2022-08-02T11:53:45;3.10;;;1.20;;
25549;SDS011;13444;50.562;7.262;2022-08-02T11:56:16;3.47;;;1.10;;
25549;SDS011;13444;50.562;7.262;2022-08-02T11:59:06;1.90;;;1.17;;
25549;SDS011;13444;50.562;7.262;2022-08-02T12:01:34;1.80;;;1.10;;
25549;SDS011;13444;50.562;7.262;2022-08-02T12:04:02;2.03;;;1.02;;
25549;SDS011;13444;50.562;7.262;2022-08-02T12:06:29;1.42;;;1.00;;
25549;SDS011;13444;50.562;7.262;2022-08-02T12:09:09;1.98;;;1.10;;
25549;SDS011;13444;50.562;7.262;2022-08-02T12:11:37;4.10;;;1.08;;
25549;SDS011;13444;50.562;7.262;2022-08-02T12:14:04;2.47;;;1.17;;
25549;SDS011;13444;50.562;7.262;2022-08-02T12:16:34;1.95;;;1.25;;
25549;SDS011;13444;50.562;7.262;2022-08-02T12:19:20;1.15;;;0.98;;
25549;SDS011;13444;50.562;7.262;2022-08-02T12:24:43;2.78;;;1.30;;
25549;SDS011;13444;50.562;7.262;2022-08-02T12:30:04;1.38;;;1.10;;
25549;SDS011;13444;50.562;7.262;2022-08-02T12:32:32;1.08;;;0.98;;
25549;SDS011;13444;50.562;7.262;2022-08-02T12:37:41;1.67;;;1.10;;
25549;SDS011;13444;50.562;7.262;2022-08-02T12:42:51;2.28;;;1.10;;
25549;SDS011;13444;50.562;7.262;2022-08-02T12:45:22;3.10;;;1.20;;
25549;SDS011;13444;50.562;7.262;2022-08-02T12:47:49;1.90;;;0.90;;
25549;SDS011;13444;50.562;7.262;2022-08-02T12:50:35;1.23;;;0.80;;
25549;SDS011;13444;50.562;7.262;2022-08-02T12:53:04;1.70;;;1.10;;
25549;SDS011;13444;50.562;7.262;2022-08-02T12:55:30;1.33;;;0.98;;
25549;SDS011;13444;50.562;7.262;2022-08-02T12:57:57;1.90;;;0.98;;
25549;SDS011;13444;50.562;7.262;2022-08-02T13:00:26;1.23;;;1.00;;
25549;SDS011;13444;50.562;7.262;2022-08-02T13:02:53;2.17;;;1.10;;
25549;SDS011;13444;50.562;7.262;2022-08-02T13:05:19;1.95;;;1.27;;
25549;SDS011;13444;50.562;7.262;2022-08-02T13:07:45;1.77;;;0.98;;
25549;SDS011;13444;50.562;7.262;2022-08-02T13:10:10;1.88;;;1.00;;
25549;SDS011;13444;50.562;7.262;2022-08-02T13:12:36;1.13;;;0.82;;
25549;SDS011;13444;50.562;7.262;2022-08-02T13:15:03;1.42;;;1.08;;
25549;SDS011;13444;50.562;7.262;2022-08-02T13:17:32;1.23;;;1.05;;
25549;SDS011;13444;50.562;7.262;2022-08-02T13:19:58;1.25;;;0.98;;
25549;SDS011;13444;50.562;7.262;2022-08-02T13:22:24;1.10;;;0.95;;
25549;SDS011;13444;50.562;7.262;2022-08-02T13:24:49;0.88;;;0.82;;
25549;SDS011;13444;50.562;7.262;2022-08-02T13:27:16;2.58;;;1.00;;
25549;SDS011;13444;50.562;7.262;2022-08-02T13:29:42;1.20;;;1.08;;
25549;SDS011;13444;50.562;7.262;2022-08-02T13:32:07;1.55;;;1.20;;
25549;SDS011;13444;50.562;7.262;2022-08-02T13:34:33;1.98;;;0.95;;
25549;SDS011;13444;50.562;7.262;2022-08-02T13:36:59;5.15;;;1.00;;
25549;SDS011;13444;50.562;7.262;2022-08-02T13:39:25;1.77;;;0.80;;
25549;SDS011;13444;50.562;7.262;2022-08-02T13:41:50;2.35;;;0.93;;
25549;SDS011;13444;50.562;7.262;2022-08-02T13:44:16;1.75;;;0.75;;
25549;SDS011;13444;50.562;7.262;2022-08-02T13:46:42;0.88;;;0.88;;
25549;SDS011;13444;50.562;7.262;2022-08-02T13:49:07;1.00;;;0.90;;
25549;SDS011;13444;50.562;7.262;2022-08-02T13:51:33;2.88;;;1.50;;
25549;SDS011;13444;50.562;7.262;2022-08-02T13:53:58;2.10;;;0.98;;
25549;SDS011;13444;50.562;7.262;2022-08-02T13:56:24;3.22;;;1.20;;
25549;SDS011;13444;50.562;7.262;2022-08-02T13:58:51;1.35;;;1.20;;
25549;SDS011;13444;50.562;7.262;2022-08-02T14:01:16;2.13;;;0.93;;
25549;SDS011;13444;50.562;7.262;2022-08-02T14:03:42;2.30;;;1.10;;
25549;SDS011;13444;50.562;7.262;2022-08-02T14:06:08;1.15;;;1.00;;
25549;SDS011;13444;50.562;7.262;2022-08-02T14:08:34;2.75;;;1.00;;
25549;SDS011;13444;50.562;7.262;2022-08-02T14:11:00;1.48;;;1.08;;
25549;SDS011;13444;50.562;7.262;2022-08-02T14:13:26;1.67;;;0.93;;
25549;SDS011;13444;50.562;7.262;2022-08-02T14:15:51;1.33;;;1.00;;
25549;SDS011;13444;50.562;7.262;2022-08-02T14:18:17;2.30;;;1.23;;
25549;SDS011;13444;50.562;7.262;2022-08-02T14:20:43;2.85;;;1.10;;
25549;SDS011;13444;50.562;7.262;2022-08-02T14:23:08;1.55;;;0.90;;
25549;SDS011;13444;50.562;7.262;2022-08-02T14:25:34;1.55;;;0.93;;
25549;SDS011;13444;50.562;7.262;2022-08-02T14:28:00;1.35;;;0.98;;
25549;SDS011;13444;50.562;7.262;2022-08-02T14:30:26;2.90;;;1.17;;
25549;SDS011;13444;50.562;7.262;2022-08-02T14:32:52;4.13;;;1.13;;
25549;SDS011;13444;50.562;7.262;2022-08-02T14:35:17;2.42;;;1.33;;
25549;SDS011;13444;50.562;7.262;2022-08-02T14:37:43;2.10;;;0.80;;
25549;SDS011;13444;50.562;7.262;2022-08-02T14:40:09;1.20;;;1.10;;
25549;SDS011;13444;50.562;7.262;2022-08-02T14:42:34;1.40;;;1.30;;
25549;SDS011;13444;50.562;7.262;2022-08-02T14:45:00;1.52;;;1.00;;
25549;SDS011;13444;50.562;7.262;2022-08-02T14:47:26;1.63;;;1.15;;
25549;SDS011;13444;50.562;7.262;2022-08-02T14:49:51;2.78;;;1.17;;
25549;SDS011;13444;50.562;7.262;2022-08-02T14:52:17;1.27;;;1.17;;
25549;SDS011;13444;50.562;7.262;2022-08-02T14:54:43;1.80;;;0.90;;
25549;SDS011;13444;50.562;7.262;2022-08-02T14:57:09;2.03;;;1.30;;
25549;SDS011;13444;50.562;7.262;2022-08-02T14:59:35;1.73;;;0.90;;
25549;SDS011;13444;50.562;7.262;2022-08-02T15:02:00;1.63;;;1.00;;
25549;SDS011;13444;50.562;7.262;2022-08-02T15:04:26;1.40;;;1.13;;
25549;SDS011;13444;50.562;7.262;2022-08-02T15:06:52;2.67;;;1.10;;
25549;SDS011;13444;50.562;7.262;2022-08-02T15:09:18;1.70;;;1.25;;
25549;SDS011;13444;50.562;7.262;2022-08-02T15:11:44;1.20;;;1.10;;
25549;SDS011;13444;50.562;7.262;2022-08-02T15:14:10;1.35;;;1.20;;
25549;SDS011;13444;50.562;7.262;2022-08-02T15:16:36;1.95;;;1.33;;
25549;SDS011;13444;50.562;7.262;2022-08-02T15:19:02;1.15;;;1.05;;
25549;SDS011;13444;50.562;7.262;2022-08-02T15:21:28;1.00;;;0.90;;
25549;SDS011;13444;50.562;7.262;2022-08-02T15:23:57;3.63;;;1.30;;
25549;SDS011;13444;50.562;7.262;2022-08-02T15:26:23;5.30;;;1.17;;
25549;SDS011;13444;50.562;7.262;2022-08-02T15:28:48;1.67;;;1.23;;
25549;SDS011;13444;50.562;7.262;2022-08-02T15:31:14;1.92;;;1.20;;